KMKO/MKO METAR and TAF weather

Enter ICAO airport designator
Station Type Date Time Source
KMKO METAR 2018/12/13 05:53 UTC NOAA

KMKO 130553Z AUTO 14008KT 10SM BKN021 OVC027 12/11 A2979 RMK AO2 SLP085 T01220106 10122 20117 401560061 56007 $


Station Type Date Time Source
KMKO Decoded METAR 2018/12/13 05:53 UTC NOAA

MUSKOGEE DAVIS FIELD, OK, United States (KMKO) 35-39N 95-22W 185M
Dec 13, 2018 - 12:53 AM EST / 2018.12.13 0553 UTC
Wind: from the SE (140 degrees) at 9 MPH (8 KT):0
Visibility: 10 mile(s):0
Sky conditions: overcast
Temperature: 54.0 F (12.2 C)
Dew Point: 51.1 F (10.6 C)
Relative Humidity: 89%
Pressure (altimeter): 29.79 in. Hg (1008 hPa)
Pressure tendency: 0.02 inches (0.7 hPa) lower than three hours ago
ob: KMKO 130553Z AUTO 14008KT 10SM BKN021 OVC027 12/11 A2979 RMK AO2 SLP085 T01220106 10122 20117 401560061 56007
cycle: 6

Station Type Date Time Source
KMKO TAF UTC NOAA

Error!


Example: see airport list